sensor_id;sensor_type;location;lat;lon;timestamp;P1;durP1;ratioP1;P2;durP2;ratioP2
40204;SDS011;26963;42.666;23.366;2023-08-20T00:01:12;9.00;;;5.70;;
40204;SDS011;26963;42.666;23.366;2023-08-20T00:03:43;7.82;;;6.10;;
40204;SDS011;26963;42.666;23.366;2023-08-20T00:06:11;10.35;;;6.40;;
40204;SDS011;26963;42.666;23.366;2023-08-20T00:08:37;8.48;;;6.20;;
40204;SDS011;26963;42.666;23.366;2023-08-20T00:11:02;8.48;;;5.95;;
40204;SDS011;26963;42.666;23.366;2023-08-20T00:13:30;9.73;;;6.32;;
40204;SDS011;26963;42.666;23.366;2023-08-20T00:15:56;8.93;;;6.25;;
40204;SDS011;26963;42.666;23.366;2023-08-20T00:18:22;8.95;;;6.20;;
40204;SDS011;26963;42.666;23.366;2023-08-20T00:20:48;10.55;;;6.18;;
40204;SDS011;26963;42.666;23.366;2023-08-20T00:23:13;7.03;;;5.97;;
40204;SDS011;26963;42.666;23.366;2023-08-20T00:25:40;7.85;;;6.43;;
40204;SDS011;26963;42.666;23.366;2023-08-20T00:28:06;7.53;;;6.13;;
40204;SDS011;26963;42.666;23.366;2023-08-20T00:30:31;8.32;;;6.22;;
40204;SDS011;26963;42.666;23.366;2023-08-20T00:32:57;9.45;;;6.30;;
40204;SDS011;26963;42.666;23.366;2023-08-20T00:35:22;8.07;;;6.70;;
40204;SDS011;26963;42.666;23.366;2023-08-20T00:37:48;7.97;;;6.32;;
40204;SDS011;26963;42.666;23.366;2023-08-20T00:40:14;9.30;;;6.03;;
40204;SDS011;26963;42.666;23.366;2023-08-20T00:42:39;9.77;;;6.30;;
40204;SDS011;26963;42.666;23.366;2023-08-20T00:45:05;10.88;;;6.40;;
40204;SDS011;26963;42.666;23.366;2023-08-20T00:47:31;7.75;;;6.70;;
40204;SDS011;26963;42.666;23.366;2023-08-20T00:49:56;9.35;;;6.75;;
40204;SDS011;26963;42.666;23.366;2023-08-20T00:52:22;9.25;;;6.45;;
40204;SDS011;26963;42.666;23.366;2023-08-20T00:54:47;7.55;;;6.68;;
40204;SDS011;26963;42.666;23.366;2023-08-20T00:57:14;12.35;;;6.47;;
40204;SDS011;26963;42.666;23.366;2023-08-20T00:59:43;10.05;;;6.80;;
40204;SDS011;26963;42.666;23.366;2023-08-20T01:02:12;8.38;;;6.35;;
40204;SDS011;26963;42.666;23.366;2023-08-20T01:04:37;10.95;;;6.35;;
40204;SDS011;26963;42.666;23.366;2023-08-20T01:12:22;8.50;;;6.38;;
40204;SDS011;26963;42.666;23.366;2023-08-20T01:14:49;8.25;;;6.68;;
40204;SDS011;26963;42.666;23.366;2023-08-20T01:17:15;8.73;;;6.32;;
40204;SDS011;26963;42.666;23.366;2023-08-20T01:19:40;8.23;;;6.78;;
40204;SDS011;26963;42.666;23.366;2023-08-20T01:30:19;10.13;;;6.95;;
40204;SDS011;26963;42.666;23.366;2023-08-20T01:32:47;8.52;;;6.93;;
40204;SDS011;26963;42.666;23.366;2023-08-20T01:35:16;8.68;;;6.63;;
40204;SDS011;26963;42.666;23.366;2023-08-20T01:37:42;9.27;;;7.18;;
40204;SDS011;26963;42.666;23.366;2023-08-20T01:40:08;7.95;;;7.15;;
40204;SDS011;26963;42.666;23.366;2023-08-20T01:42:38;8.85;;;6.80;;
40204;SDS011;26963;42.666;23.366;2023-08-20T01:45:05;11.82;;;7.00;;
40204;SDS011;26963;42.666;23.366;2023-08-20T01:47:32;8.43;;;7.00;;
40204;SDS011;26963;42.666;23.366;2023-08-20T01:50:00;8.77;;;7.20;;
40204;SDS011;26963;42.666;23.366;2023-08-20T01:52:26;9.55;;;6.95;;
40204;SDS011;26963;42.666;23.366;2023-08-20T01:54:52;8.15;;;7.35;;
40204;SDS011;26963;42.666;23.366;2023-08-20T01:57:18;9.57;;;7.22;;
40204;SDS011;26963;42.666;23.366;2023-08-20T01:59:44;12.35;;;8.00;;
40204;SDS011;26963;42.666;23.366;2023-08-20T02:02:10;9.25;;;7.82;;
40204;SDS011;26963;42.666;23.366;2023-08-20T02:04:35;10.60;;;7.63;;
40204;SDS011;26963;42.666;23.366;2023-08-20T02:07:01;11.45;;;7.47;;
40204;SDS011;26963;42.666;23.366;2023-08-20T02:09:26;9.20;;;7.47;;
40204;SDS011;26963;42.666;23.366;2023-08-20T02:11:52;11.52;;;7.57;;
40204;SDS011;26963;42.666;23.366;2023-08-20T02:14:18;10.85;;;7.47;;
40204;SDS011;26963;42.666;23.366;2023-08-20T02:16:44;12.07;;;7.50;;
40204;SDS011;26963;42.666;23.366;2023-08-20T02:19:11;10.85;;;7.68;;
40204;SDS011;26963;42.666;23.366;2023-08-20T02:21:36;9.68;;;8.32;;
40204;SDS011;26963;42.666;23.366;2023-08-20T02:24:02;9.20;;;7.90;;
40204;SDS011;26963;42.666;23.366;2023-08-20T02:26:28;11.98;;;7.70;;
40204;SDS011;26963;42.666;23.366;2023-08-20T02:28:53;20.27;;;16.42;;
40204;SDS011;26963;42.666;23.366;2023-08-20T02:31:20;10.18;;;8.18;;
40204;SDS011;26963;42.666;23.366;2023-08-20T02:33:47;11.95;;;8.05;;
40204;SDS011;26963;42.666;23.366;2023-08-20T02:36:12;9.07;;;7.85;;
40204;SDS011;26963;42.666;23.366;2023-08-20T02:38:38;9.10;;;7.72;;
40204;SDS011;26963;42.666;23.366;2023-08-20T02:41:03;9.57;;;7.95;;
40204;SDS011;26963;42.666;23.366;2023-08-20T02:43:29;9.30;;;8.30;;
40204;SDS011;26963;42.666;23.366;2023-08-20T02:45:55;16.85;;;7.93;;
40204;SDS011;26963;42.666;23.366;2023-08-20T02:48:20;11.20;;;8.60;;
40204;SDS011;26963;42.666;23.366;2023-08-20T02:50:46;16.27;;;8.43;;
40204;SDS011;26963;42.666;23.366;2023-08-20T02:53:12;8.88;;;7.30;;
40204;SDS011;26963;42.666;23.366;2023-08-20T02:55:37;9.82;;;7.78;;
40204;SDS011;26963;42.666;23.366;2023-08-20T02:58:03;11.07;;;7.65;;
40204;SDS011;26963;42.666;23.366;2023-08-20T03:00:29;10.35;;;7.85;;
40204;SDS011;26963;42.666;23.366;2023-08-20T03:02:55;9.60;;;8.43;;
40204;SDS011;26963;42.666;23.366;2023-08-20T03:05:21;10.05;;;7.82;;
40204;SDS011;26963;42.666;23.366;2023-08-20T03:07:47;10.75;;;7.82;;
40204;SDS011;26963;42.666;23.366;2023-08-20T03:10:13;10.07;;;8.40;;
40204;SDS011;26963;42.666;23.366;2023-08-20T03:12:38;10.68;;;8.05;;
40204;SDS011;26963;42.666;23.366;2023-08-20T03:15:04;11.20;;;7.78;;
40204;SDS011;26963;42.666;23.366;2023-08-20T03:17:30;10.88;;;8.13;;
40204;SDS011;26963;42.666;23.366;2023-08-20T03:19:57;8.98;;;7.30;;
40204;SDS011;26963;42.666;23.366;2023-08-20T03:22:23;12.70;;;7.95;;
40204;SDS011;26963;42.666;23.366;2023-08-20T03:24:50;10.82;;;7.60;;
40204;SDS011;26963;42.666;23.366;2023-08-20T03:27:16;9.23;;;7.80;;
40204;SDS011;26963;42.666;23.366;2023-08-20T03:29:43;10.35;;;8.07;;
40204;SDS011;26963;42.666;23.366;2023-08-20T03:32:09;10.32;;;7.78;;
40204;SDS011;26963;42.666;23.366;2023-08-20T03:34:35;9.75;;;8.00;;
40204;SDS011;26963;42.666;23.366;2023-08-20T03:37:01;9.88;;;7.85;;
40204;SDS011;26963;42.666;23.366;2023-08-20T03:39:27;10.05;;;7.53;;
40204;SDS011;26963;42.666;23.366;2023-08-20T03:41:52;9.98;;;7.70;;
40204;SDS011;26963;42.666;23.366;2023-08-20T03:44:18;10.13;;;8.40;;
40204;SDS011;26963;42.666;23.366;2023-08-20T03:46:44;10.65;;;7.57;;
40204;SDS011;26963;42.666;23.366;2023-08-20T03:49:10;12.32;;;9.68;;
40204;SDS011;26963;42.666;23.366;2023-08-20T03:51:35;9.32;;;8.23;;
40204;SDS011;26963;42.666;23.366;2023-08-20T03:54:01;9.50;;;8.50;;
40204;SDS011;26963;42.666;23.366;2023-08-20T03:56:27;8.23;;;7.43;;
40204;SDS011;26963;42.666;23.366;2023-08-20T03:58:53;11.02;;;7.90;;
40204;SDS011;26963;42.666;23.366;2023-08-20T04:01:19;12.10;;;8.75;;
40204;SDS011;26963;42.666;23.366;2023-08-20T04:03:45;11.23;;;8.85;;
40204;SDS011;26963;42.666;23.366;2023-08-20T04:06:11;11.38;;;8.65;;
40204;SDS011;26963;42.666;23.366;2023-08-20T04:08:36;12.60;;;8.40;;
40204;SDS011;26963;42.666;23.366;2023-08-20T04:11:02;11.55;;;8.85;;
40204;SDS011;26963;42.666;23.366;2023-08-20T04:13:29;9.65;;;8.65;;
40204;SDS011;26963;42.666;23.366;2023-08-20T04:15:54;8.98;;;8.07;;
40204;SDS011;26963;42.666;23.366;2023-08-20T04:18:20;11.45;;;8.27;;
40204;SDS011;26963;42.666;23.366;2023-08-20T04:20:47;9.35;;;7.05;;
40204;SDS011;26963;42.666;23.366;2023-08-20T04:23:17;9.88;;;8.38;;
40204;SDS011;26963;42.666;23.366;2023-08-20T04:25:42;11.27;;;8.25;;
40204;SDS011;26963;42.666;23.366;2023-08-20T04:28:09;12.18;;;10.13;;
40204;SDS011;26963;42.666;23.366;2023-08-20T04:30:35;16.67;;;10.57;;
40204;SDS011;26963;42.666;23.366;2023-08-20T04:33:01;10.57;;;8.68;;
40204;SDS011;26963;42.666;23.366;2023-08-20T04:35:27;13.43;;;9.85;;
40204;SDS011;26963;42.666;23.366;2023-08-20T04:37:52;13.52;;;9.77;;
40204;SDS011;26963;42.666;23.366;2023-08-20T04:40:18;11.52;;;9.10;;
40204;SDS011;26963;42.666;23.366;2023-08-20T04:42:44;11.82;;;8.80;;
40204;SDS011;26963;42.666;23.366;2023-08-20T04:45:09;9.63;;;8.50;;
40204;SDS011;26963;42.666;23.366;2023-08-20T04:47:36;11.15;;;8.45;;
40204;SDS011;26963;42.666;23.366;2023-08-20T04:50:02;10.98;;;8.50;;
40204;SDS011;26963;42.666;23.366;2023-08-20T04:52:28;10.38;;;8.27;;
40204;SDS011;26963;42.666;23.366;2023-08-20T04:54:54;12.98;;;8.68;;
40204;SDS011;26963;42.666;23.366;2023-08-20T04:57:19;10.32;;;9.02;;
40204;SDS011;26963;42.666;23.366;2023-08-20T04:59:45;11.85;;;8.50;;
40204;SDS011;26963;42.666;23.366;2023-08-20T05:02:11;11.43;;;8.27;;
40204;SDS011;26963;42.666;23.366;2023-08-20T05:04:38;10.93;;;7.70;;
40204;SDS011;26963;42.666;23.366;2023-08-20T05:07:03;9.63;;;7.80;;
40204;SDS011;26963;42.666;23.366;2023-08-20T05:09:29;12.57;;;8.68;;
40204;SDS011;26963;42.666;23.366;2023-08-20T05:11:55;11.10;;;8.57;;
40204;SDS011;26963;42.666;23.366;2023-08-20T05:14:21;10.50;;;9.40;;
40204;SDS011;26963;42.666;23.366;2023-08-20T05:16:46;14.57;;;10.77;;
40204;SDS011;26963;42.666;23.366;2023-08-20T05:19:12;13.40;;;10.15;;
40204;SDS011;26963;42.666;23.366;2023-08-20T05:21:38;14.40;;;11.18;;
40204;SDS011;26963;42.666;23.366;2023-08-20T05:24:04;17.60;;;10.90;;
40204;SDS011;26963;42.666;23.366;2023-08-20T05:26:29;15.52;;;10.35;;
40204;SDS011;26963;42.666;23.366;2023-08-20T05:28:55;13.65;;;11.00;;
40204;SDS011;26963;42.666;23.366;2023-08-20T05:31:21;14.75;;;10.52;;
40204;SDS011;26963;42.666;23.366;2023-08-20T05:33:46;14.02;;;10.27;;
40204;SDS011;26963;42.666;23.366;2023-08-20T05:36:13;14.35;;;10.23;;
40204;SDS011;26963;42.666;23.366;2023-08-20T05:38:39;13.52;;;10.75;;
40204;SDS011;26963;42.666;23.366;2023-08-20T05:41:07;12.85;;;9.95;;
40204;SDS011;26963;42.666;23.366;2023-08-20T05:43:33;14.48;;;11.25;;
40204;SDS011;26963;42.666;23.366;2023-08-20T05:45:58;14.20;;;9.90;;
40204;SDS011;26963;42.666;23.366;2023-08-20T05:48:24;13.73;;;10.40;;
40204;SDS011;26963;42.666;23.366;2023-08-20T05:50:49;11.27;;;10.18;;
40204;SDS011;26963;42.666;23.366;2023-08-20T05:53:15;12.77;;;9.88;;
40204;SDS011;26963;42.666;23.366;2023-08-20T05:55:40;14.23;;;11.68;;
40204;SDS011;26963;42.666;23.366;2023-08-20T05:58:06;16.95;;;11.30;;
40204;SDS011;26963;42.666;23.366;2023-08-20T06:00:32;13.00;;;10.50;;
40204;SDS011;26963;42.666;23.366;2023-08-20T06:02:57;12.05;;;10.10;;
40204;SDS011;26963;42.666;23.366;2023-08-20T06:05:23;14.85;;;9.77;;
40204;SDS011;26963;42.666;23.366;2023-08-20T06:07:48;13.38;;;10.18;;
40204;SDS011;26963;42.666;23.366;2023-08-20T06:10:15;12.38;;;10.57;;
40204;SDS011;26963;42.666;23.366;2023-08-20T06:12:40;12.77;;;10.30;;
40204;SDS011;26963;42.666;23.366;2023-08-20T06:15:06;13.82;;;10.98;;
40204;SDS011;26963;42.666;23.366;2023-08-20T06:17:32;14.93;;;10.85;;
40204;SDS011;26963;42.666;23.366;2023-08-20T06:19:58;16.30;;;13.98;;
40204;SDS011;26963;42.666;23.366;2023-08-20T06:22:23;13.07;;;10.35;;
40204;SDS011;26963;42.666;23.366;2023-08-20T06:24:50;13.35;;;11.35;;
40204;SDS011;26963;42.666;23.366;2023-08-20T06:27:15;18.40;;;16.15;;
40204;SDS011;26963;42.666;23.366;2023-08-20T06:29:41;18.50;;;14.73;;
40204;SDS011;26963;42.666;23.366;2023-08-20T06:32:06;15.95;;;12.88;;
40204;SDS011;26963;42.666;23.366;2023-08-20T06:34:33;20.15;;;14.13;;
40204;SDS011;26963;42.666;23.366;2023-08-20T06:37:00;15.50;;;10.68;;
40204;SDS011;26963;42.666;23.366;2023-08-20T06:39:25;17.25;;;12.02;;
40204;SDS011;26963;42.666;23.366;2023-08-20T06:41:51;27.20;;;11.43;;
40204;SDS011;26963;42.666;23.366;2023-08-20T06:44:16;21.33;;;19.05;;
40204;SDS011;26963;42.666;23.366;2023-08-20T06:46:42;17.88;;;12.60;;
40204;SDS011;26963;42.666;23.366;2023-08-20T06:49:08;11.15;;;9.60;;
40204;SDS011;26963;42.666;23.366;2023-08-20T06:51:33;15.95;;;11.13;;
40204;SDS011;26963;42.666;23.366;2023-08-20T06:53:59;15.55;;;10.43;;
40204;SDS011;26963;42.666;23.366;2023-08-20T06:56:24;14.30;;;11.85;;
40204;SDS011;26963;42.666;23.366;2023-08-20T06:58:50;14.85;;;9.80;;
40204;SDS011;26963;42.666;23.366;2023-08-20T07:01:15;15.27;;;8.98;;
40204;SDS011;26963;42.666;23.366;2023-08-20T07:03:42;16.40;;;8.75;;
40204;SDS011;26963;42.666;23.366;2023-08-20T07:06:09;10.27;;;8.40;;
40204;SDS011;26963;42.666;23.366;2023-08-20T07:08:35;13.35;;;8.23;;
40204;SDS011;26963;42.666;23.366;2023-08-20T07:11:03;11.70;;;6.15;;
40204;SDS011;26963;42.666;23.366;2023-08-20T07:13:29;14.07;;;7.32;;
40204;SDS011;26963;42.666;23.366;2023-08-20T07:15:55;10.73;;;6.00;;
40204;SDS011;26963;42.666;23.366;2023-08-20T07:18:20;13.82;;;6.18;;
40204;SDS011;26963;42.666;23.366;2023-08-20T07:20:46;10.13;;;5.55;;
40204;SDS011;26963;42.666;23.366;2023-08-20T07:23:11;11.38;;;5.70;;
40204;SDS011;26963;42.666;23.366;2023-08-20T07:25:38;10.82;;;5.60;;
40204;SDS011;26963;42.666;23.366;2023-08-20T07:28:05;12.45;;;6.28;;
40204;SDS011;26963;42.666;23.366;2023-08-20T07:30:31;8.88;;;5.88;;
40204;SDS011;26963;42.666;23.366;2023-08-20T07:32:56;11.18;;;5.25;;
40204;SDS011;26963;42.666;23.366;2023-08-20T07:35:22;8.50;;;6.20;;
40204;SDS011;26963;42.666;23.366;2023-08-20T07:37:48;8.85;;;5.60;;
40204;SDS011;26963;42.666;23.366;2023-08-20T07:40:14;9.32;;;6.15;;
40204;SDS011;26963;42.666;23.366;2023-08-20T07:42:40;7.35;;;5.70;;
40204;SDS011;26963;42.666;23.366;2023-08-20T07:45:06;10.13;;;6.78;;
40204;SDS011;26963;42.666;23.366;2023-08-20T07:47:33;6.07;;;4.82;;
40204;SDS011;26963;42.666;23.366;2023-08-20T07:49:59;6.32;;;4.82;;
40204;SDS011;26963;42.666;23.366;2023-08-20T07:52:27;6.40;;;4.78;;
40204;SDS011;26963;42.666;23.366;2023-08-20T07:55:01;7.65;;;4.35;;
40204;SDS011;26963;42.666;23.366;2023-08-20T07:57:27;7.25;;;4.72;;
40204;SDS011;26963;42.666;23.366;2023-08-20T07:59:55;10.00;;;5.30;;
40204;SDS011;26963;42.666;23.366;2023-08-20T08:02:30;8.27;;;4.82;;
40204;SDS011;26963;42.666;23.366;2023-08-20T08:04:58;7.43;;;4.82;;
40204;SDS011;26963;42.666;23.366;2023-08-20T08:07:23;5.70;;;4.63;;
40204;SDS011;26963;42.666;23.366;2023-08-20T08:09:54;7.10;;;4.32;;
40204;SDS011;26963;42.666;23.366;2023-08-20T08:12:20;5.80;;;4.55;;
40204;SDS011;26963;42.666;23.366;2023-08-20T08:14:54;8.27;;;4.53;;
40204;SDS011;26963;42.666;23.366;2023-08-20T08:17:20;5.72;;;4.32;;
40204;SDS011;26963;42.666;23.366;2023-08-20T08:19:48;6.57;;;5.07;;
40204;SDS011;26963;42.666;23.366;2023-08-20T08:22:14;7.00;;;4.72;;
40204;SDS011;26963;42.666;23.366;2023-08-20T08:24:43;9.13;;;4.50;;
40204;SDS011;26963;42.666;23.366;2023-08-20T08:27:19;8.65;;;4.20;;
40204;SDS011;26963;42.666;23.366;2023-08-20T08:29:50;7.45;;;3.58;;
40204;SDS011;26963;42.666;23.366;2023-08-20T08:32:19;6.78;;;3.47;;
40204;SDS011;26963;42.666;23.366;2023-08-20T08:34:45;6.50;;;3.88;;
40204;SDS011;26963;42.666;23.366;2023-08-20T08:37:11;5.85;;;4.00;;
40204;SDS011;26963;42.666;23.366;2023-08-20T08:39:36;5.65;;;3.85;;
40204;SDS011;26963;42.666;23.366;2023-08-20T08:42:03;6.43;;;4.20;;
40204;SDS011;26963;42.666;23.366;2023-08-20T08:44:33;9.45;;;4.57;;
40204;SDS011;26963;42.666;23.366;2023-08-20T08:47:01;4.95;;;3.83;;
40204;SDS011;26963;42.666;23.366;2023-08-20T08:49:27;4.13;;;3.35;;
40204;SDS011;26963;42.666;23.366;2023-08-20T08:51:56;3.55;;;3.15;;
40204;SDS011;26963;42.666;23.366;2023-08-20T08:54:22;6.55;;;3.20;;
40204;SDS011;26963;42.666;23.366;2023-08-20T08:56:49;5.63;;;3.40;;
40204;SDS011;26963;42.666;23.366;2023-08-20T08:59:15;5.07;;;3.50;;
40204;SDS011;26963;42.666;23.366;2023-08-20T09:01:41;8.10;;;3.70;;
40204;SDS011;26963;42.666;23.366;2023-08-20T09:04:06;6.25;;;3.50;;
40204;SDS011;26963;42.666;23.366;2023-08-20T09:06:48;6.30;;;3.65;;
40204;SDS011;26963;42.666;23.366;2023-08-20T09:09:18;4.93;;;3.40;;
40204;SDS011;26963;42.666;23.366;2023-08-20T09:11:45;6.95;;;3.97;;
40204;SDS011;26963;42.666;23.366;2023-08-20T09:14:27;6.13;;;4.38;;
40204;SDS011;26963;42.666;23.366;2023-08-20T09:16:58;4.75;;;3.58;;
40204;SDS011;26963;42.666;23.366;2023-08-20T09:19:27;5.07;;;3.80;;
40204;SDS011;26963;42.666;23.366;2023-08-20T09:21:55;6.63;;;3.75;;
40204;SDS011;26963;42.666;23.366;2023-08-20T09:24:34;5.63;;;3.72;;
40204;SDS011;26963;42.666;23.366;2023-08-20T09:27:04;6.43;;;3.85;;
40204;SDS011;26963;42.666;23.366;2023-08-20T09:29:43;6.93;;;3.50;;
40204;SDS011;26963;42.666;23.366;2023-08-20T09:32:14;5.07;;;3.70;;
40204;SDS011;26963;42.666;23.366;2023-08-20T09:34:43;4.10;;;3.58;;
40204;SDS011;26963;42.666;23.366;2023-08-20T09:37:09;4.85;;;3.80;;
40204;SDS011;26963;42.666;23.366;2023-08-20T09:39:37;5.95;;;3.80;;
40204;SDS011;26963;42.666;23.366;2023-08-20T09:42:04;5.88;;;4.70;;
40204;SDS011;26963;42.666;23.366;2023-08-20T09:44:34;6.00;;;4.03;;
40204;SDS011;26963;42.666;23.366;2023-08-20T09:47:13;8.65;;;5.10;;
40204;SDS011;26963;42.666;23.366;2023-08-20T09:49:41;6.47;;;3.50;;
40204;SDS011;26963;42.666;23.366;2023-08-20T09:52:09;4.82;;;3.20;;
40204;SDS011;26963;42.666;23.366;2023-08-20T09:57:41;6.13;;;4.00;;
40204;SDS011;26963;42.666;23.366;2023-08-20T10:00:07;5.35;;;3.08;;
40204;SDS011;26963;42.666;23.366;2023-08-20T10:02:38;7.00;;;4.07;;
40204;SDS011;26963;42.666;23.366;2023-08-20T10:05:07;7.15;;;3.60;;
40204;SDS011;26963;42.666;23.366;2023-08-20T10:07:34;5.93;;;3.55;;
40204;SDS011;26963;42.666;23.366;2023-08-20T10:10:02;4.72;;;3.47;;
40204;SDS011;26963;42.666;23.366;2023-08-20T10:12:29;5.18;;;3.63;;
40204;SDS011;26963;42.666;23.366;2023-08-20T10:14:56;3.78;;;3.03;;
40204;SDS011;26963;42.666;23.366;2023-08-20T10:17:23;5.78;;;3.10;;
40204;SDS011;26963;42.666;23.366;2023-08-20T10:19:50;5.85;;;3.28;;
40204;SDS011;26963;42.666;23.366;2023-08-20T10:22:19;8.43;;;3.40;;
40204;SDS011;26963;42.666;23.366;2023-08-20T10:24:51;7.10;;;3.50;;
40204;SDS011;26963;42.666;23.366;2023-08-20T10:27:27;5.07;;;2.80;;
40204;SDS011;26963;42.666;23.366;2023-08-20T10:29:56;5.00;;;3.67;;
40204;SDS011;26963;42.666;23.366;2023-08-20T10:35:09;4.10;;;2.92;;
40204;SDS011;26963;42.666;23.366;2023-08-20T10:37:35;6.65;;;3.28;;
40204;SDS011;26963;42.666;23.366;2023-08-20T10:40:02;4.03;;;3.50;;
40204;SDS011;26963;42.666;23.366;2023-08-20T10:42:29;5.72;;;3.45;;
40204;SDS011;26963;42.666;23.366;2023-08-20T10:44:59;3.90;;;3.08;;
40204;SDS011;26963;42.666;23.366;2023-08-20T10:47:41;5.20;;;3.55;;
40204;SDS011;26963;42.666;23.366;2023-08-20T10:50:16;7.47;;;4.50;;
40204;SDS011;26963;42.666;23.366;2023-08-20T10:52:50;5.10;;;3.30;;
40204;SDS011;26963;42.666;23.366;2023-08-20T10:55:23;5.97;;;3.72;;
40204;SDS011;26963;42.666;23.366;2023-08-20T10:57:56;5.47;;;3.30;;
40204;SDS011;26963;42.666;23.366;2023-08-20T11:00:24;5.40;;;4.20;;
40204;SDS011;26963;42.666;23.366;2023-08-20T11:02:50;4.55;;;3.85;;
40204;SDS011;26963;42.666;23.366;2023-08-20T11:05:18;7.70;;;3.60;;
40204;SDS011;26963;42.666;23.366;2023-08-20T11:07:46;5.15;;;3.28;;
40204;SDS011;26963;42.666;23.366;2023-08-20T11:10:16;7.82;;;3.85;;
40204;SDS011;26963;42.666;23.366;2023-08-20T11:12:42;6.10;;;3.80;;
40204;SDS011;26963;42.666;23.366;2023-08-20T11:15:10;6.68;;;4.10;;
40204;SDS011;26963;42.666;23.366;2023-08-20T11:17:40;3.70;;;3.28;;
40204;SDS011;26963;42.666;23.366;2023-08-20T11:20:15;5.53;;;3.92;;
40204;SDS011;26963;42.666;23.366;2023-08-20T11:22:41;5.30;;;3.70;;
40204;SDS011;26963;42.666;23.366;2023-08-20T11:25:10;5.18;;;3.30;;
40204;SDS011;26963;42.666;23.366;2023-08-20T11:27:41;5.05;;;3.83;;
40204;SDS011;26963;42.666;23.366;2023-08-20T11:30:09;6.75;;;3.63;;
40204;SDS011;26963;42.666;23.366;2023-08-20T11:32:37;7.15;;;3.80;;
40204;SDS011;26963;42.666;23.366;2023-08-20T11:35:04;4.63;;;3.53;;
40204;SDS011;26963;42.666;23.366;2023-08-20T11:37:32;5.05;;;3.20;;
40204;SDS011;26963;42.666;23.366;2023-08-20T11:39:58;4.45;;;3.42;;
40204;SDS011;26963;42.666;23.366;2023-08-20T11:42:24;4.28;;;3.00;;
40204;SDS011;26963;42.666;23.366;2023-08-20T11:44:50;6.80;;;3.95;;
40204;SDS011;26963;42.666;23.366;2023-08-20T11:47:16;8.63;;;3.70;;
40204;SDS011;26963;42.666;23.366;2023-08-20T11:49:43;5.50;;;3.78;;
40204;SDS011;26963;42.666;23.366;2023-08-20T11:52:09;5.28;;;3.67;;
40204;SDS011;26963;42.666;23.366;2023-08-20T11:54:35;5.80;;;4.50;;
40204;SDS011;26963;42.666;23.366;2023-08-20T11:57:05;5.60;;;3.70;;
40204;SDS011;26963;42.666;23.366;2023-08-20T11:59:31;6.18;;;3.72;;
40204;SDS011;26963;42.666;23.366;2023-08-20T12:01:58;8.32;;;4.10;;
40204;SDS011;26963;42.666;23.366;2023-08-20T12:04:26;5.75;;;3.92;;
40204;SDS011;26963;42.666;23.366;2023-08-20T12:07:12;6.45;;;3.88;;
40204;SDS011;26963;42.666;23.366;2023-08-20T12:09:39;3.90;;;3.25;;
40204;SDS011;26963;42.666;23.366;2023-08-20T12:12:06;7.75;;;4.05;;
40204;SDS011;26963;42.666;23.366;2023-08-20T12:14:32;6.55;;;3.60;;
40204;SDS011;26963;42.666;23.366;2023-08-20T12:16:58;5.20;;;3.47;;
40204;SDS011;26963;42.666;23.366;2023-08-20T12:19:24;4.57;;;3.50;;
40204;SDS011;26963;42.666;23.366;2023-08-20T12:21:50;6.47;;;3.42;;
40204;SDS011;26963;42.666;23.366;2023-08-20T12:24:16;6.45;;;3.53;;
40204;SDS011;26963;42.666;23.366;2023-08-20T12:26:44;4.68;;;3.70;;
40204;SDS011;26963;42.666;23.366;2023-08-20T12:29:10;5.47;;;3.50;;
40204;SDS011;26963;42.666;23.366;2023-08-20T12:31:36;10.75;;;4.05;;
40204;SDS011;26963;42.666;23.366;2023-08-20T12:34:01;7.50;;;3.70;;
40204;SDS011;26963;42.666;23.366;2023-08-20T12:36:28;8.05;;;3.67;;
40204;SDS011;26963;42.666;23.366;2023-08-20T12:38:54;4.78;;;3.75;;
40204;SDS011;26963;42.666;23.366;2023-08-20T12:41:20;5.80;;;3.50;;
40204;SDS011;26963;42.666;23.366;2023-08-20T12:43:46;6.22;;;3.60;;
40204;SDS011;26963;42.666;23.366;2023-08-20T12:46:11;7.53;;;3.95;;
40204;SDS011;26963;42.666;23.366;2023-08-20T12:48:38;4.90;;;3.65;;
40204;SDS011;26963;42.666;23.366;2023-08-20T12:51:04;4.50;;;3.60;;
40204;SDS011;26963;42.666;23.366;2023-08-20T12:53:31;7.10;;;3.60;;
40204;SDS011;26963;42.666;23.366;2023-08-20T12:55:57;5.97;;;3.75;;
40204;SDS011;26963;42.666;23.366;2023-08-20T12:58:22;5.70;;;3.20;;
40204;SDS011;26963;42.666;23.366;2023-08-20T13:00:48;6.63;;;3.90;;
40204;SDS011;26963;42.666;23.366;2023-08-20T13:03:13;5.00;;;3.50;;
40204;SDS011;26963;42.666;23.366;2023-08-20T13:05:39;4.63;;;3.50;;
40204;SDS011;26963;42.666;23.366;2023-08-20T13:08:05;6.72;;;3.88;;
40204;SDS011;26963;42.666;23.366;2023-08-20T13:10:31;6.22;;;3.50;;
40204;SDS011;26963;42.666;23.366;2023-08-20T13:12:59;5.40;;;3.63;;
40204;SDS011;26963;42.666;23.366;2023-08-20T13:15:26;7.53;;;3.78;;
40204;SDS011;26963;42.666;23.366;2023-08-20T13:17:52;4.43;;;3.53;;
40204;SDS011;26963;42.666;23.366;2023-08-20T13:20:18;5.13;;;3.95;;
40204;SDS011;26963;42.666;23.366;2023-08-20T13:22:49;4.05;;;3.50;;
40204;SDS011;26963;42.666;23.366;2023-08-20T13:25:15;4.13;;;3.70;;
40204;SDS011;26963;42.666;23.366;2023-08-20T13:27:42;5.40;;;3.55;;
40204;SDS011;26963;42.666;23.366;2023-08-20T13:30:08;6.45;;;3.55;;
40204;SDS011;26963;42.666;23.366;2023-08-20T13:32:35;4.50;;;3.63;;
40204;SDS011;26963;42.666;23.366;2023-08-20T13:35:01;4.85;;;3.60;;
40204;SDS011;26963;42.666;23.366;2023-08-20T13:37:29;5.72;;;3.60;;
40204;SDS011;26963;42.666;23.366;2023-08-20T13:39:56;4.80;;;3.83;;
40204;SDS011;26963;42.666;23.366;2023-08-20T13:42:25;4.50;;;3.33;;
40204;SDS011;26963;42.666;23.366;2023-08-20T13:44:51;4.45;;;4.03;;
40204;SDS011;26963;42.666;23.366;2023-08-20T13:47:17;5.22;;;4.10;;
40204;SDS011;26963;42.666;23.366;2023-08-20T13:49:43;6.00;;;3.40;;
40204;SDS011;26963;42.666;23.366;2023-08-20T13:52:09;3.70;;;3.13;;
40204;SDS011;26963;42.666;23.366;2023-08-20T13:54:35;6.72;;;3.45;;
40204;SDS011;26963;42.666;23.366;2023-08-20T13:57:01;7.05;;;3.85;;
40204;SDS011;26963;42.666;23.366;2023-08-20T13:59:28;4.60;;;3.50;;
40204;SDS011;26963;42.666;23.366;2023-08-20T14:01:54;5.97;;;3.95;;
40204;SDS011;26963;42.666;23.366;2023-08-20T14:04:20;6.63;;;3.75;;
40204;SDS011;26963;42.666;23.366;2023-08-20T14:06:46;4.50;;;3.40;;
40204;SDS011;26963;42.666;23.366;2023-08-20T14:09:11;5.30;;;3.45;;
40204;SDS011;26963;42.666;23.366;2023-08-20T14:11:37;5.45;;;3.90;;
40204;SDS011;26963;42.666;23.366;2023-08-20T14:14:02;4.90;;;3.70;;
40204;SDS011;26963;42.666;23.366;2023-08-20T14:16:28;4.97;;;3.40;;
40204;SDS011;26963;42.666;23.366;2023-08-20T14:18:54;4.85;;;3.63;;
40204;SDS011;26963;42.666;23.366;2023-08-20T14:21:19;4.57;;;3.40;;
40204;SDS011;26963;42.666;23.366;2023-08-20T14:23:45;4.57;;;3.50;;
40204;SDS011;26963;42.666;23.366;2023-08-20T14:26:11;5.95;;;3.80;;
40204;SDS011;26963;42.666;23.366;2023-08-20T14:28:36;6.68;;;4.53;;
40204;SDS011;26963;42.666;23.366;2023-08-20T14:31:02;7.60;;;3.38;;
40204;SDS011;26963;42.666;23.366;2023-08-20T14:33:29;7.40;;;3.97;;
40204;SDS011;26963;42.666;23.366;2023-08-20T14:35:57;5.97;;;3.20;;
40204;SDS011;26963;42.666;23.366;2023-08-20T14:38:23;7.35;;;3.50;;
40204;SDS011;26963;42.666;23.366;2023-08-20T14:40:49;8.05;;;3.88;;
40204;SDS011;26963;42.666;23.366;2023-08-20T14:43:14;5.43;;;3.45;;
40204;SDS011;26963;42.666;23.366;2023-08-20T14:45:40;6.47;;;3.95;;